Time;durP1;ratioP1;P1;durP2;ratioP2;P2;SDS_P1;SDS_P2;PMS_P1;PMS_P2;Temp;Humidity;BMP_temperature;BMP_pressure;BME280_temperature;BME280_humidity;BME280_pressure;Samples;Min_cycle;Max_cycle;Signal;HPM_P1;HPM_P2
2020/12/15 00:01:12;;;;;;;3.57;3.03;;;8.60;99.90;;;;;;5093622;28;20209;-73
2020/12/15 00:03:37;;;;;;;4.70;2.87;;;8.60;99.90;;;;;;5094330;28;20177;-73
2020/12/15 00:06:03;;;;;;;4.80;4.20;;;8.60;99.90;;;;;;5090487;28;20625;-73
2020/12/15 00:08:29;;;;;;;4.73;3.73;;;8.60;99.90;;;;;;5076405;28;20163;-73
2020/12/15 00:10:54;;;;;;;4.87;4.10;;;8.60;99.90;;;;;;5094966;28;20189;-74
2020/12/15 00:13:20;;;;;;;5.43;4.20;;;8.70;99.90;;;;;;5095482;28;20658;-73
2020/12/15 00:15:45;;;;;;;6.90;3.70;;;8.70;99.90;;;;;;5094620;28;20176;-73
2020/12/15 00:18:11;;;;;;;5.33;3.87;;;8.70;99.90;;;;;;5092106;28;20242;-74
2020/12/15 00:20:41;;;;;;;4.60;4.07;;;8.60;99.90;;;;;;5093235;28;20220;-77
2020/12/15 00:23:08;;;;;;;6.50;3.90;;;8.60;99.90;;;;;;5091877;28;20177;-77
2020/12/15 00:25:33;;;;;;;5.57;4.00;;;8.70;99.90;;;;;;5093369;28;20526;-73
2020/12/15 00:27:59;;;;;;;5.80;4.00;;;8.60;99.90;;;;;;5094671;28;20498;-74
2020/12/15 00:30:25;;;;;;;4.73;4.33;;;8.70;99.90;;;;;;5093886;28;20190;-75
2020/12/15 00:32:52;;;;;;;5.10;4.60;;;8.70;99.90;;;;;;5094679;28;20223;-74
2020/12/15 00:35:17;;;;;;;5.83;4.13;;;8.60;99.90;;;;;;5093831;28;20429;-74
2020/12/15 00:37:43;;;;;;;4.30;3.90;;;8.60;99.90;;;;;;5093227;28;20503;-74
2020/12/15 00:40:09;;;;;;;9.20;4.40;;;8.50;99.90;;;;;;5093772;28;20216;-77
2020/12/15 00:42:34;;;;;;;6.90;5.37;;;8.40;99.90;;;;;;5091327;28;20197;-73
2020/12/15 00:45:00;;;;;;;5.83;5.00;;;8.30;99.90;;;;;;5093318;28;20242;-73
2020/12/15 00:47:26;;;;;;;5.30;4.80;;;8.20;99.90;;;;;;5093623;28;20173;-73
2020/12/15 00:49:51;;;;;;;7.07;4.60;;;8.10;99.90;;;;;;5087955;28;20451;-76
2020/12/15 00:52:17;;;;;;;9.37;4.70;;;8.10;99.90;;;;;;5093227;28;20226;-74
2020/12/15 00:54:43;;;;;;;9.40;4.53;;;8.00;99.90;;;;;;5095990;28;20205;-76
2020/12/15 00:57:09;;;;;;;6.43;4.53;;;8.00;99.90;;;;;;5094945;28;20966;-75
2020/12/15 00:59:35;;;;;;;5.97;5.37;;;8.00;99.90;;;;;;5093998;28;20170;-73
2020/12/15 01:02:02;;;;;;;5.87;4.53;;;7.90;99.90;;;;;;5096215;28;20717;-76
2020/12/15 01:04:28;;;;;;;4.40;4.00;;;7.90;99.90;;;;;;5097032;28;20539;-76
2020/12/15 01:06:54;;;;;;;6.00;4.30;;;7.80;99.90;;;;;;5095437;28;20453;-73
2020/12/15 01:09:20;;;;;;;3.97;3.40;;;7.80;99.90;;;;;;5098098;28;20218;-72
2020/12/15 01:11:46;;;;;;;5.50;4.37;;;7.70;99.90;;;;;;5097021;28;20908;-75
2020/12/15 01:14:12;;;;;;;7.33;4.53;;;7.70;99.90;;;;;;5095991;28;20614;-74
2020/12/15 01:16:39;;;;;;;7.43;4.20;;;7.70;99.90;;;;;;5093411;28;20545;-73
2020/12/15 01:19:04;;;;;;;5.60;4.00;;;7.60;99.90;;;;;;5093965;28;20652;-73
2020/12/15 01:21:30;;;;;;;5.63;3.97;;;7.70;99.90;;;;;;5092785;28;20552;-74
2020/12/15 01:23:57;;;;;;;5.63;4.33;;;7.70;99.90;;;;;;5093533;28;20267;-73
2020/12/15 01:26:23;;;;;;;5.53;4.07;;;7.70;99.90;;;;;;5093214;28;20906;-74
2020/12/15 01:28:50;;;;;;;6.30;4.70;;;7.70;99.90;;;;;;5074736;28;20805;-74
2020/12/15 01:31:23;;;;;;;5.33;4.70;;;7.70;99.90;;;;;;5092236;28;20562;-74
2020/12/15 01:33:49;;;;;;;4.53;3.77;;;7.70;99.90;;;;;;5093328;28;20852;-74
2020/12/15 01:36:14;;;;;;;5.30;4.37;;;7.70;99.90;;;;;;5094238;28;20431;-74
2020/12/15 01:38:43;;;;;;;5.47;4.33;;;7.70;99.90;;;;;;5092558;28;20216;-74
2020/12/15 01:41:11;;;;;;;5.93;4.50;;;7.70;99.90;;;;;;5091874;28;20209;-74
2020/12/15 01:43:36;;;;;;;5.83;4.93;;;7.70;99.90;;;;;;5092793;28;20442;-74
2020/12/15 01:46:02;;;;;;;5.13;4.47;;;7.60;99.90;;;;;;5092549;28;20457;-75
2020/12/15 01:48:27;;;;;;;5.00;4.17;;;7.60;99.90;;;;;;5092527;28;20193;-73
2020/12/15 01:50:53;;;;;;;6.70;5.37;;;7.60;99.90;;;;;;5096781;28;20716;-76
2020/12/15 01:53:19;;;;;;;5.20;4.80;;;7.60;99.90;;;;;;5096733;28;20174;-76
2020/12/15 01:55:45;;;;;;;11.70;5.47;;;7.60;99.90;;;;;;5095325;28;20247;-75
2020/12/15 01:58:11;;;;;;;6.90;5.47;;;7.60;99.90;;;;;;5099322;28;20542;-75
2020/12/15 02:00:37;;;;;;;5.70;5.00;;;7.60;99.90;;;;;;5092655;28;20458;-74
2020/12/15 02:03:02;;;;;;;7.20;5.67;;;7.50;99.90;;;;;;5091984;28;20432;-74
2020/12/15 02:05:29;;;;;;;8.37;4.83;;;7.60;99.90;;;;;;5092252;28;20174;-74
2020/12/15 02:07:54;;;;;;;5.27;4.77;;;7.50;99.90;;;;;;5092218;28;20184;-74
2020/12/15 02:10:20;;;;;;;7.90;5.13;;;7.50;99.90;;;;;;5091901;28;20455;-74
2020/12/15 02:12:48;;;;;;;8.50;5.97;;;7.50;99.90;;;;;;5093539;28;20183;-76
2020/12/15 02:15:14;;;;;;;8.83;6.57;;;7.50;99.90;;;;;;5092347;28;20186;-76
2020/12/15 02:17:40;;;;;;;7.20;5.67;;;7.60;99.90;;;;;;5095923;28;20435;-75
2020/12/15 02:20:06;;;;;;;9.27;6.00;;;7.50;99.90;;;;;;5095098;28;20443;-76
2020/12/15 02:22:32;;;;;;;8.83;5.60;;;7.40;99.90;;;;;;5090481;28;20201;-76
2020/12/15 02:24:57;;;;;;;5.47;4.93;;;7.40;99.90;;;;;;5092180;28;20586;-76
2020/12/15 02:27:23;;;;;;;6.80;5.80;;;7.40;99.90;;;;;;5091775;28;20355;-75
2020/12/15 02:29:48;;;;;;;6.70;6.10;;;7.30;99.90;;;;;;5086983;28;20223;-72
2020/12/15 02:32:14;;;;;;;7.47;5.87;;;7.30;99.90;;;;;;5086612;28;20169;-75
2020/12/15 02:34:40;;;;;;;13.47;7.47;;;7.30;99.90;;;;;;5092505;28;20205;-76
2020/12/15 02:37:10;;;;;;;9.67;6.10;;;7.20;99.90;;;;;;5092398;28;20527;-74
2020/12/15 02:39:35;;;;;;;6.57;5.97;;;7.20;99.90;;;;;;5093656;28;20173;-74
2020/12/15 02:42:01;;;;;;;8.60;7.10;;;7.20;99.90;;;;;;5090743;28;20466;-74
2020/12/15 02:44:27;;;;;;;9.67;6.43;;;7.30;99.90;;;;;;5091642;28;20428;-74
2020/12/15 02:46:53;;;;;;;7.50;6.30;;;7.30;99.90;;;;;;5093817;28;20165;-75
2020/12/15 02:49:19;;;;;;;7.40;6.70;;;7.30;99.90;;;;;;5090901;28;20182;-75
2020/12/15 02:51:47;;;;;;;8.33;7.00;;;7.30;99.90;;;;;;5092354;28;20427;-75
2020/12/15 02:54:13;;;;;;;8.57;7.67;;;7.30;99.90;;;;;;5091901;28;20450;-75
2020/12/15 02:56:39;;;;;;;8.83;6.87;;;7.30;99.90;;;;;;5091353;28;20431;-75
2020/12/15 02:59:04;;;;;;;8.43;6.60;;;7.30;99.90;;;;;;5092867;28;20169;-73
2020/12/15 03:01:30;;;;;;;7.83;7.00;;;7.30;99.90;;;;;;5084721;28;20220;-73
2020/12/15 03:03:56;;;;;;;7.13;5.80;;;7.20;99.90;;;;;;5090818;28;20799;-73
2020/12/15 03:06:21;;;;;;;6.87;6.10;;;7.20;99.90;;;;;;5090423;28;20174;-74
2020/12/15 03:08:47;;;;;;;8.07;6.83;;;7.20;99.90;;;;;;5090732;28;20257;-75
2020/12/15 03:11:13;;;;;;;7.50;6.30;;;7.20;99.90;;;;;;5090275;28;20251;-73
2020/12/15 03:13:38;;;;;;;9.00;7.23;;;7.20;99.90;;;;;;5091365;28;20178;-74
2020/12/15 03:16:04;;;;;;;7.77;6.57;;;7.20;99.90;;;;;;5090317;28;20230;-74
2020/12/15 03:18:30;;;;;;;9.80;7.43;;;7.20;99.90;;;;;;5084712;28;20178;-74
2020/12/15 03:20:55;;;;;;;8.83;7.40;;;7.20;99.90;;;;;;5090042;28;20198;-73
2020/12/15 03:23:22;;;;;;;11.63;7.07;;;7.20;99.90;;;;;;5091255;28;20544;-74
2020/12/15 03:25:52;;;;;;;14.13;7.37;;;7.20;99.90;;;;;;5090621;28;20669;-74
2020/12/15 03:28:21;;;;;;;8.80;7.17;;;7.20;99.90;;;;;;5089062;28;20501;-74
2020/12/15 03:30:48;;;;;;;10.10;7.40;;;7.20;99.90;;;;;;5094502;28;20451;-73
2020/12/15 03:33:13;;;;;;;8.17;7.37;;;7.20;99.90;;;;;;5092060;28;20407;-74
2020/12/15 03:35:39;;;;;;;8.70;7.30;;;7.20;99.90;;;;;;5091797;28;20416;-73
2020/12/15 03:38:05;;;;;;;7.90;6.90;;;7.20;99.90;;;;;;5091711;28;20165;-73
2020/12/15 03:40:30;;;;;;;9.03;6.57;;;7.20;99.90;;;;;;5091469;28;20545;-73
2020/12/15 03:42:56;;;;;;;8.83;7.70;;;7.20;99.90;;;;;;5091337;28;20654;-72
2020/12/15 03:45:21;;;;;;;7.93;7.13;;;7.20;99.90;;;;;;5089726;28;20162;-73
2020/12/15 03:47:47;;;;;;;8.70;6.93;;;7.20;99.90;;;;;;5091289;28;20189;-73
2020/12/15 03:50:13;;;;;;;7.73;6.23;;;7.20;99.90;;;;;;5091086;28;20189;-73
2020/12/15 03:52:39;;;;;;;9.60;6.70;;;7.20;99.90;;;;;;5090557;28;20178;-74
2020/12/15 03:55:05;;;;;;;8.63;6.60;;;7.20;99.90;;;;;;5089501;28;20561;-73
2020/12/15 03:57:31;;;;;;;10.43;7.57;;;7.20;99.90;;;;;;5091179;28;20469;-74
2020/12/15 03:59:57;;;;;;;7.63;6.83;;;7.20;99.90;;;;;;5090311;28;20431;-73
2020/12/15 04:02:23;;;;;;;7.57;6.37;;;7.20;99.90;;;;;;5090120;28;20463;-74
2020/12/15 04:04:50;;;;;;;10.53;7.77;;;7.30;99.90;;;;;;5087990;28;20431;-74
2020/12/15 04:07:16;;;;;;;10.50;8.27;;;7.30;99.90;;;;;;5084733;28;20635;-73
2020/12/15 04:09:41;;;;;;;10.00;6.60;;;7.20;99.90;;;;;;5090795;28;20948;-74
2020/12/15 04:12:07;;;;;;;11.83;7.77;;;7.20;99.90;;;;;;5090209;28;20473;-74
2020/12/15 04:14:33;;;;;;;10.07;6.50;;;7.20;99.90;;;;;;5091557;28;20161;-74
2020/12/15 04:16:58;;;;;;;12.40;10.00;;;7.20;99.90;;;;;;5091351;28;20230;-73
2020/12/15 04:19:24;;;;;;;7.93;7.13;;;7.30;99.90;;;;;;5091351;28;20170;-73
2020/12/15 04:21:49;;;;;;;10.23;7.43;;;7.30;99.90;;;;;;5093763;28;20258;-74
2020/12/15 04:24:15;;;;;;;7.33;6.60;;;7.30;99.90;;;;;;5094225;28;20588;-74
2020/12/15 04:26:41;;;;;;;8.43;7.20;;;7.30;99.90;;;;;;5094614;28;20170;-76
2020/12/15 04:29:06;;;;;;;9.83;6.70;;;7.30;99.90;;;;;;5093917;28;20181;-74
2020/12/15 04:31:32;;;;;;;9.33;6.97;;;7.30;99.90;;;;;;5094399;28;20204;-73
2020/12/15 04:33:58;;;;;;;11.90;7.00;;;7.30;99.90;;;;;;5094301;28;20246;-75
2020/12/15 04:36:24;;;;;;;11.67;7.40;;;7.40;99.90;;;;;;5093308;28;20200;-75
2020/12/15 04:38:50;;;;;;;7.63;6.77;;;7.40;99.90;;;;;;5093118;28;20286;-74
2020/12/15 04:41:16;;;;;;;10.63;8.00;;;7.40;99.90;;;;;;5093358;28;20497;-75
2020/12/15 04:43:43;;;;;;;9.77;7.70;;;7.40;99.90;;;;;;5091205;28;20697;-75
2020/12/15 04:46:11;;;;;;;9.53;7.83;;;7.50;99.90;;;;;;5092638;28;20514;-75
2020/12/15 04:48:43;;;;;;;7.80;6.67;;;7.50;99.90;;;;;;5093943;28;20476;-77
2020/12/15 04:51:16;;;;;;;8.90;6.47;;;7.50;99.90;;;;;;5092618;28;20473;-74
2020/12/15 04:53:45;;;;;;;10.83;7.60;;;7.50;99.90;;;;;;5092959;28;20424;-74
2020/12/15 04:56:32;;;;;;;14.00;7.60;;;7.50;99.90;;;;;;5092875;28;20463;-74
2020/12/15 04:58:59;;;;;;;11.90;7.97;;;7.40;99.90;;;;;;5094558;28;20419;-74
2020/12/15 05:01:25;;;;;;;10.97;7.27;;;7.50;99.90;;;;;;5091467;28;20455;-74
2020/12/15 05:03:52;;;;;;;7.97;7.17;;;7.50;99.90;;;;;;5095492;28;20454;-76
2020/12/15 05:06:26;;;;;;;12.90;7.77;;;7.50;99.90;;;;;;5094323;28;20439;-74
2020/12/15 05:08:52;;;;;;;11.30;8.10;;;7.50;99.90;;;;;;5093243;28;20423;-73
2020/12/15 05:11:18;;;;;;;15.33;8.13;;;7.50;99.90;;;;;;5090348;28;20810;-75
2020/12/15 05:13:43;;;;;;;10.70;8.30;;;7.50;99.90;;;;;;5092990;28;20507;-74
2020/12/15 05:16:09;;;;;;;13.00;7.50;;;7.60;99.90;;;;;;5089709;28;20181;-76
2020/12/15 05:18:35;;;;;;;9.80;8.60;;;7.60;99.90;;;;;;5087005;28;20272;-76
2020/12/15 05:21:15;;;;;;;9.37;8.37;;;7.60;99.90;;;;;;5093292;28;20455;-75
2020/12/15 05:23:46;;;;;;;8.77;8.03;;;7.60;99.90;;;;;;5095265;28;20260;-76
2020/12/15 05:26:11;;;;;;;10.83;8.20;;;7.60;99.90;;;;;;5091619;28;20944;-76
2020/12/15 05:28:37;;;;;;;10.00;7.43;;;7.70;99.90;;;;;;5094062;28;20430;-74
2020/12/15 05:31:02;;;;;;;14.13;8.67;;;7.70;99.90;;;;;;5091420;28;20208;-74
2020/12/15 05:33:28;;;;;;;11.30;7.23;;;7.60;99.90;;;;;;5093446;28;20173;-74
2020/12/15 05:35:54;;;;;;;9.13;8.33;;;7.60;99.90;;;;;;5092750;28;20188;-73
2020/12/15 05:38:20;;;;;;;9.27;7.40;;;7.60;99.90;;;;;;5094372;28;20162;-75
2020/12/15 05:40:46;;;;;;;12.33;8.57;;;7.60;99.90;;;;;;5091020;28;20208;-74
2020/12/15 05:43:12;;;;;;;9.43;7.40;;;7.60;99.90;;;;;;5089929;28;20435;-74
2020/12/15 05:45:38;;;;;;;9.97;8.97;;;7.70;99.90;;;;;;5090977;28;20192;-74
2020/12/15 05:48:08;;;;;;;11.80;8.73;;;7.60;99.90;;;;;;5093085;28;20447;-75
2020/12/15 05:50:35;;;;;;;9.23;8.17;;;7.70;99.90;;;;;;5083390;28;20201;-76
2020/12/15 05:53:03;;;;;;;10.67;8.17;;;7.70;99.90;;;;;;5086532;28;20423;-76
2020/12/15 05:55:29;;;;;;;11.47;8.20;;;7.70;99.90;;;;;;5091217;28;20432;-75
2020/12/15 05:57:56;;;;;;;10.70;8.43;;;7.70;99.90;;;;;;5093157;28;20434;-74
2020/12/15 06:00:25;;;;;;;10.57;8.10;;;7.70;99.90;;;;;;5092332;28;20447;-76
2020/12/15 06:02:57;;;;;;;9.23;7.30;;;7.70;99.90;;;;;;5092141;28;20452;-74
2020/12/15 06:05:25;;;;;;;10.57;7.67;;;7.80;99.90;;;;;;5092727;28;20443;-73
2020/12/15 06:07:54;;;;;;;9.17;7.50;;;7.80;99.90;;;;;;5092805;28;20419;-73
2020/12/15 06:10:20;;;;;;;7.27;6.37;;;7.80;99.90;;;;;;5092088;28;20455;-74
2020/12/15 06:12:49;;;;;;;17.83;8.90;;;7.80;99.90;;;;;;5086807;28;20461;-73
2020/12/15 06:15:15;;;;;;;14.30;7.63;;;7.80;99.90;;;;;;5088922;28;20489;-73
2020/12/15 06:17:45;;;;;;;9.27;8.13;;;7.80;99.90;;;;;;5087379;28;20427;-73
2020/12/15 06:20:11;;;;;;;12.87;8.70;;;7.80;99.90;;;;;;5091174;28;20451;-73
2020/12/15 06:22:37;;;;;;;11.43;8.83;;;7.80;99.90;;;;;;5091642;28;20465;-76
2020/12/15 06:25:03;;;;;;;10.07;8.30;;;7.80;99.90;;;;;;5093376;28;20181;-75
2020/12/15 06:27:36;;;;;;;12.67;9.17;;;7.80;99.90;;;;;;5092386;28;21018;-76
2020/12/15 06:30:05;;;;;;;14.07;9.03;;;7.90;99.90;;;;;;5092884;28;20508;-75
2020/12/15 06:32:31;;;;;;;13.60;9.77;;;7.90;99.90;;;;;;5092240;28;20944;-76
2020/12/15 06:34:56;;;;;;;12.13;8.97;;;7.90;99.90;;;;;;5092029;28;20474;-76
2020/12/15 06:37:24;;;;;;;13.80;9.40;;;7.90;99.90;;;;;;5090988;28;20184;-74
2020/12/15 06:39:59;;;;;;;14.87;8.97;;;7.90;99.90;;;;;;5091239;28;20254;-73
2020/12/15 06:42:28;;;;;;;12.27;9.90;;;7.90;99.90;;;;;;5086042;28;20455;-75
2020/12/15 06:45:07;;;;;;;12.27;9.23;;;7.90;99.90;;;;;;5091276;28;20467;-75
2020/12/15 06:47:34;;;;;;;13.40;9.67;;;7.90;99.90;;;;;;5093320;28;20438;-75
2020/12/15 06:50:14;;;;;;;13.33;9.57;;;7.90;99.90;;;;;;5091759;28;20474;-76
2020/12/15 06:52:40;;;;;;;11.87;9.37;;;8.00;99.90;;;;;;5090709;28;20468;-75
2020/12/15 06:55:06;;;;;;;14.00;10.17;;;7.90;99.90;;;;;;5089682;28;20427;-76
2020/12/15 06:57:33;;;;;;;10.83;8.93;;;7.90;99.90;;;;;;5092410;28;20174;-75
2020/12/15 07:00:04;;;;;;;12.50;9.50;;;8.00;99.90;;;;;;5093008;28;20466;-75
2020/12/15 07:02:31;;;;;;;12.50;11.23;;;7.90;99.90;;;;;;5091556;28;20466;-75
2020/12/15 07:05:17;;;;;;;15.90;9.60;;;8.00;99.90;;;;;;5092878;28;20472;-74
2020/12/15 07:07:51;;;;;;;14.20;10.87;;;8.00;99.90;;;;;;5092055;28;20480;-75
2020/12/15 07:10:18;;;;;;;15.30;11.60;;;8.00;99.90;;;;;;5107431;28;20538;-75
2020/12/15 07:12:46;;;;;;;14.90;10.83;;;8.00;99.90;;;;;;5091927;28;20768;-76
2020/12/15 07:15:13;;;;;;;17.97;11.87;;;8.00;99.90;;;;;;5089374;28;20428;-76
2020/12/15 07:17:49;;;;;;;14.93;10.90;;;8.10;99.90;;;;;;5087414;28;20435;-76
2020/12/15 07:20:16;;;;;;;16.80;11.23;;;8.10;99.90;;;;;;5091720;28;20431;-74
2020/12/15 07:22:43;;;;;;;13.27;11.40;;;8.00;99.90;;;;;;5091861;28;20509;-75
2020/12/15 07:25:10;;;;;;;14.33;11.07;;;8.10;99.90;;;;;;5090421;28;20455;-76
2020/12/15 07:27:37;;;;;;;17.77;11.83;;;8.10;99.90;;;;;;5092402;28;20427;-76
2020/12/15 07:30:08;;;;;;;13.60;10.83;;;8.10;99.90;;;;;;5092601;28;20439;-76
2020/12/15 07:32:36;;;;;;;21.53;12.00;;;8.10;99.90;;;;;;5091456;28;20434;-75
2020/12/15 07:35:06;;;;;;;17.93;13.20;;;8.10;99.90;;;;;;5091947;28;20766;-76
2020/12/15 07:37:35;;;;;;;19.80;12.07;;;8.10;99.90;;;;;;5091466;28;20999;-75
2020/12/15 07:40:03;;;;;;;14.43;12.17;;;8.10;99.90;;;;;;5091012;28;20525;-74
2020/12/15 07:42:29;;;;;;;17.50;14.20;;;8.10;99.90;;;;;;5089580;28;20548;-75
2020/12/15 07:45:00;;;;;;;15.10;12.37;;;8.10;99.90;;;;;;5092343;28;20498;-75
2020/12/15 07:47:26;;;;;;;15.93;13.43;;;8.10;99.90;;;;;;5090912;28;20170;-75
2020/12/15 07:49:56;;;;;;;16.20;14.00;;;8.10;99.90;;;;;;5090886;28;20455;-75
2020/12/15 07:52:30;;;;;;;18.77;11.97;;;8.10;99.90;;;;;;5092249;28;20863;-75
2020/12/15 07:55:05;;;;;;;16.23;13.03;;;8.10;99.90;;;;;;5093102;28;20423;-75
2020/12/15 07:57:32;;;;;;;21.43;15.40;;;8.10;99.90;;;;;;5090088;28;20423;-75
2020/12/15 08:00:10;;;;;;;16.77;12.10;;;8.10;99.90;;;;;;5094718;28;20867;-75
2020/12/15 08:02:36;;;;;;;18.73;14.60;;;8.10;99.90;;;;;;5096339;28;20435;-75
2020/12/15 08:05:07;;;;;;;18.00;13.73;;;8.10;99.90;;;;;;5092472;28;20576;-74
2020/12/15 08:07:43;;;;;;;23.87;14.97;;;8.10;99.90;;;;;;5095761;28;20233;-76
2020/12/15 08:10:09;;;;;;;16.10;12.30;;;8.10;99.90;;;;;;5090176;28;20435;-74
2020/12/15 08:12:35;;;;;;;17.67;14.50;;;8.10;99.90;;;;;;5093407;28;20467;-76
2020/12/15 08:15:02;;;;;;;15.30;13.20;;;8.10;99.90;;;;;;5096090;28;20948;-76
2020/12/15 08:17:31;;;;;;;17.50;13.53;;;8.20;99.90;;;;;;5094147;28;20785;-75
2020/12/15 08:20:16;;;;;;;30.13;14.23;;;8.20;99.90;;;;;;5078653;28;20458;-76
2020/12/15 08:22:45;;;;;;;17.77;12.20;;;8.20;99.90;;;;;;5094654;28;20533;-76
2020/12/15 08:25:12;;;;;;;20.80;13.57;;;8.30;99.90;;;;;;5095149;28;20438;-75
2020/12/15 08:27:38;;;;;;;15.97;12.70;;;8.30;99.90;;;;;;5095237;28;20418;-75
2020/12/15 08:30:20;;;;;;;19.63;13.60;;;8.30;99.90;;;;;;5096124;28;20455;-74
2020/12/15 08:32:48;;;;;;;21.47;14.77;;;8.30;99.90;;;;;;5094019;28;20207;-73
2020/12/15 08:35:21;;;;;;;15.33;13.13;;;8.40;99.90;;;;;;5075682;28;20434;-74
2020/12/15 08:37:52;;;;;;;18.97;13.73;;;8.30;99.90;;;;;;5089649;28;20435;-75
2020/12/15 08:40:18;;;;;;;15.87;14.17;;;8.40;99.90;;;;;;5093926;28;20496;-75
2020/12/15 08:42:44;;;;;;;21.50;14.07;;;8.40;99.90;;;;;;5095694;28;20454;-76
2020/12/15 08:45:25;;;;;;;25.60;14.97;;;8.30;99.90;;;;;;5094733;28;20428;-75
2020/12/15 08:47:51;;;;;;;19.00;14.17;;;8.40;99.90;;;;;;5095251;28;20435;-75
2020/12/15 08:50:17;;;;;;;19.33;14.80;;;8.30;99.90;;;;;;5093386;28;20451;-73
2020/12/15 08:52:43;;;;;;;16.80;13.00;;;8.30;99.90;;;;;;5094309;28;20446;-75
2020/12/15 08:55:10;;;;;;;22.13;15.63;;;8.30;99.90;;;;;;5094606;28;20260;-75
2020/12/15 08:57:35;;;;;;;20.80;15.93;;;8.30;99.90;;;;;;5092643;28;20428;-75
2020/12/15 09:00:15;;;;;;;17.50;15.20;;;8.30;99.90;;;;;;5091622;28;20505;-76
2020/12/15 09:02:42;;;;;;;17.90;14.50;;;8.40;99.90;;;;;;5091691;28;20474;-75
2020/12/15 09:05:09;;;;;;;24.40;15.10;;;8.40;99.90;;;;;;5092771;28;20426;-75
2020/12/15 09:07:35;;;;;;;17.70;13.60;;;8.40;99.90;;;;;;5093442;28;20423;-75
2020/12/15 09:10:16;;;;;;;20.90;15.37;;;8.40;99.90;;;;;;5090926;28;20486;-74
2020/12/15 09:12:46;;;;;;;20.37;14.70;;;8.40;99.90;;;;;;5089546;28;20430;-73
2020/12/15 09:15:12;;;;;;;24.63;16.27;;;8.50;99.90;;;;;;5086145;28;20428;-73
2020/12/15 09:17:38;;;;;;;18.10;14.33;;;8.50;99.90;;;;;;5088597;28;20427;-73
2020/12/15 09:20:06;;;;;;;25.73;15.30;;;8.60;99.90;;;;;;5086686;28;20502;-73
2020/12/15 09:22:32;;;;;;;19.20;15.53;;;8.60;99.90;;;;;;5085539;28;20470;-73
2020/12/15 09:25:01;;;;;;;18.23;15.77;;;8.60;99.90;;;;;;5089295;28;20424;-73
2020/12/15 09:27:28;;;;;;;20.90;14.87;;;8.60;99.90;;;;;;5090921;28;20211;-73
2020/12/15 09:29:53;;;;;;;22.20;15.90;;;8.70;99.90;;;;;;5091234;28;20512;-74
2020/12/15 09:32:19;;;;;;;19.93;15.90;;;8.70;99.90;;;;;;5092650;28;20408;-73
2020/12/15 09:34:46;;;;;;;16.87;13.60;;;8.70;99.90;;;;;;5090854;28;20436;-73
2020/12/15 09:37:12;;;;;;;18.53;14.77;;;8.70;99.90;;;;;;5091401;28;20177;-73
2020/12/15 09:39:39;;;;;;;19.17;15.10;;;8.70;99.90;;;;;;5090857;28;20443;-73
2020/12/15 09:42:05;;;;;;;18.00;13.83;;;8.70;99.90;;;;;;5092399;28;20544;-73
2020/12/15 09:44:31;;;;;;;26.13;15.87;;;8.70;99.90;;;;;;5090932;28;20431;-73
2020/12/15 09:46:57;;;;;;;21.43;15.47;;;8.70;99.90;;;;;;5090428;28;20796;-73
2020/12/15 09:49:24;;;;;;;19.40;13.67;;;8.80;99.90;;;;;;5089595;28;20951;-73
2020/12/15 09:51:49;;;;;;;21.47;16.03;;;8.80;99.90;;;;;;5088508;28;20442;-73
2020/12/15 09:54:15;;;;;;;16.60;12.57;;;8.80;99.90;;;;;;5090979;28;20435;-72
2020/12/15 09:56:45;;;;;;;19.40;14.30;;;8.80;99.90;;;;;;5091985;28;20180;-72
2020/12/15 09:59:12;;;;;;;15.27;12.70;;;8.80;99.90;;;;;;5090961;28;20179;-73
2020/12/15 10:01:44;;;;;;;17.83;13.50;;;8.80;99.90;;;;;;5090208;28;20554;-72
2020/12/15 10:04:10;;;;;;;18.90;13.90;;;8.80;99.90;;;;;;5087002;28;20964;-72
2020/12/15 10:06:37;;;;;;;19.03;13.70;;;8.80;99.90;;;;;;5089761;28;20546;-73
2020/12/15 10:09:04;;;;;;;18.57;13.87;;;8.80;99.90;;;;;;5091359;28;20403;-73
2020/12/15 10:11:29;;;;;;;18.90;15.40;;;8.90;99.90;;;;;;5089763;28;20451;-72
2020/12/15 10:13:55;;;;;;;19.30;14.40;;;8.90;99.90;;;;;;5089016;28;20522;-73
2020/12/15 10:16:21;;;;;;;19.93;15.40;;;8.90;99.90;;;;;;5089738;28;20197;-72
2020/12/15 10:18:47;;;;;;;18.03;13.50;;;9.00;99.90;;;;;;5090948;28;20665;-73
2020/12/15 10:21:17;;;;;;;19.67;13.00;;;9.00;99.90;;;;;;5089376;28;20205;-72
2020/12/15 10:23:44;;;;;;;17.90;14.20;;;9.00;99.90;;;;;;5089488;28;20431;-72
2020/12/15 10:26:10;;;;;;;25.20;14.60;;;9.00;99.90;;;;;;5090107;28;20450;-72
2020/12/15 10:28:36;;;;;;;16.40;12.53;;;9.00;99.90;;;;;;5088160;28;20785;-72
2020/12/15 10:31:02;;;;;;;15.30;12.73;;;9.10;99.90;;;;;;5090676;28;20193;-72
2020/12/15 10:33:29;;;;;;;18.00;12.77;;;9.10;99.90;;;;;;5090868;28;20431;-72
2020/12/15 10:35:55;;;;;;;18.10;14.87;;;9.10;99.90;;;;;;5091591;28;20267;-73
2020/12/15 10:38:21;;;;;;;17.77;13.80;;;9.10;99.90;;;;;;5089860;28;20795;-72
2020/12/15 10:40:47;;;;;;;19.00;12.77;;;9.10;99.90;;;;;;5090602;28;20447;-72
2020/12/15 10:43:13;;;;;;;18.07;14.20;;;9.10;99.90;;;;;;5090202;28;20549;-72
2020/12/15 10:45:39;;;;;;;19.63;14.63;;;9.10;99.90;;;;;;5089621;28;20487;-72
2020/12/15 10:48:04;;;;;;;23.37;13.37;;;9.10;99.90;;;;;;5089997;28;20451;-73
2020/12/15 10:50:30;;;;;;;16.20;13.53;;;9.10;99.90;;;;;;5084901;28;20259;-72
2020/12/15 10:52:56;;;;;;;18.20;13.43;;;9.10;99.90;;;;;;5084299;28;20238;-72
2020/12/15 10:55:22;;;;;;;16.17;13.10;;;9.10;99.90;;;;;;5087409;28;20185;-73
2020/12/15 10:57:48;;;;;;;18.13;14.30;;;9.00;99.90;;;;;;5091083;28;20420;-72
2020/12/15 11:00:13;;;;;;;16.10;13.57;;;9.10;99.90;;;;;;5091126;28;20181;-72
2020/12/15 11:02:39;;;;;;;18.57;15.17;;;9.10;99.90;;;;;;5090880;28;20282;-73
2020/12/15 11:05:05;;;;;;;17.47;13.57;;;9.10;99.90;;;;;;5091219;28;20183;-73
2020/12/15 11:07:30;;;;;;;18.67;14.27;;;9.20;99.90;;;;;;5090035;28;20184;-73
2020/12/15 11:09:56;;;;;;;17.00;14.20;;;9.20;99.90;;;;;;5089717;28;20197;-72
2020/12/15 11:12:22;;;;;;;16.00;13.50;;;9.20;99.90;;;;;;5088776;28;20264;-72
2020/12/15 11:14:47;;;;;;;20.17;14.80;;;9.10;99.90;;;;;;5083593;28;20177;-72
2020/12/15 11:17:13;;;;;;;17.00;13.57;;;9.20;99.90;;;;;;5083884;28;20540;-72
2020/12/15 11:19:38;;;;;;;17.60;14.80;;;9.20;99.90;;;;;;5082018;28;20184;-72
2020/12/15 11:22:04;;;;;;;18.83;13.80;;;9.20;99.90;;;;;;5089840;28;20197;-73
2020/12/15 11:24:30;;;;;;;18.20;14.30;;;9.20;99.90;;;;;;5090283;28;20170;-72
2020/12/15 11:26:56;;;;;;;17.50;13.90;;;9.20;99.90;;;;;;5087156;28;20193;-72
2020/12/15 11:29:22;;;;;;;23.60;14.80;;;9.20;99.90;;;;;;5083574;28;20481;-72
2020/12/15 11:31:53;;;;;;;20.90;14.67;;;9.20;99.90;;;;;;5082847;28;20178;-72
2020/12/15 11:34:20;;;;;;;19.10;14.23;;;9.20;99.90;;;;;;5083840;28;20181;-72
2020/12/15 11:36:46;;;;;;;22.17;14.73;;;9.20;99.90;;;;;;5084133;28;20506;-72
2020/12/15 11:39:12;;;;;;;22.30;14.87;;;9.30;99.90;;;;;;5086421;28;20510;-72
2020/12/15 11:41:39;;;;;;;19.83;14.33;;;9.30;99.90;;;;;;5085271;28;20566;-73
2020/12/15 11:44:05;;;;;;;23.87;17.13;;;9.30;99.90;;;;;;5083817;28;20188;-73
2020/12/15 11:46:31;;;;;;;20.97;15.43;;;9.40;99.90;;;;;;5086918;28;20431;-73
2020/12/15 11:48:56;;;;;;;18.30;15.63;;;9.40;99.90;;;;;;5089361;28;20427;-73
2020/12/15 11:51:22;;;;;;;17.70;14.93;;;9.50;99.90;;;;;;5088631;28;20205;-73
2020/12/15 11:53:48;;;;;;;19.70;14.57;;;9.50;99.90;;;;;;5089788;28;20205;-73
2020/12/15 11:56:17;;;;;;;20.23;15.50;;;9.40;99.90;;;;;;5088115;28;20178;-73
2020/12/15 11:58:43;;;;;;;24.23;17.00;;;9.50;99.90;;;;;;5086743;28;20176;-74
2020/12/15 12:01:09;;;;;;;19.00;15.90;;;9.40;99.90;;;;;;5088955;28;20454;-71
2020/12/15 12:03:35;;;;;;;22.13;16.07;;;9.50;99.90;;;;;;5089870;28;20435;-71
2020/12/15 12:06:01;;;;;;;19.00;14.80;;;9.60;99.90;;;;;;5089759;28;20261;-71
2020/12/15 12:08:26;;;;;;;18.70;16.30;;;9.60;99.90;;;;;;5088565;28;20178;-71
2020/12/15 12:10:52;;;;;;;20.43;15.20;;;9.70;99.90;;;;;;5087607;28;20205;-71
2020/12/15 12:13:18;;;;;;;26.63;15.30;;;9.70;99.90;;;;;;5089793;28;20201;-71
2020/12/15 12:15:44;;;;;;;25.77;16.40;;;9.70;99.90;;;;;;5088894;28;20459;-71
2020/12/15 12:18:09;;;;;;;17.33;15.07;;;9.70;99.90;;;;;;5087931;28;20260;-71
2020/12/15 12:20:35;;;;;;;20.20;14.70;;;9.70;99.90;;;;;;5086834;28;20194;-71
2020/12/15 12:23:02;;;;;;;31.53;20.87;;;9.80;99.90;;;;;;5089725;28;20292;-71
2020/12/15 12:25:27;;;;;;;20.90;14.57;;;9.90;99.90;;;;;;5089304;28;20435;-71
2020/12/15 12:27:54;;;;;;;17.63;14.87;;;10.00;99.90;;;;;;5089337;28;20442;-71
2020/12/15 12:30:20;;;;;;;18.27;14.83;;;10.10;99.90;;;;;;5088430;28;20195;-72
2020/12/15 12:32:46;;;;;;;32.37;21.67;;;10.10;99.90;;;;;;5082212;28;20500;-72
2020/12/15 12:35:12;;;;;;;20.50;13.80;;;10.00;99.90;;;;;;5088088;28;20467;-71
2020/12/15 12:37:38;;;;;;;18.57;14.50;;;10.00;99.90;;;;;;5083958;28;20250;-71
2020/12/15 12:40:05;;;;;;;17.93;13.33;;;10.10;99.90;;;;;;5088362;28;20451;-71
2020/12/15 12:42:30;;;;;;;18.73;14.00;;;10.10;99.90;;;;;;5091973;28;20485;-71
2020/12/15 12:44:56;;;;;;;14.93;12.97;;;10.10;99.90;;;;;;5093075;28;20439;-71